Time;durP1;ratioP1;P1;durP2;ratioP2;P2;SDS_P1;SDS_P2;PMS_P1;PMS_P2;Temp;Humidity;BMP_temperature;BMP_pressure;BME280_temperature;BME280_humidity;BME280_pressure;Samples;Min_cycle;Max_cycle;Signal;HPM_P1;HPM_P2
2023/06/28 00:01:18;;;;;;;3.92;1.90;;;20.20;92.20;;;;;;5091408;28;20051;-50
2023/06/28 00:03:43;;;;;;;2.70;1.70;;;20.20;92.20;;;;;;5091148;28;20543;-51
2023/06/28 00:06:09;;;;;;;5.25;1.70;;;20.20;92.30;;;;;;5091180;28;20032;-50
2023/06/28 00:08:34;;;;;;;2.42;1.25;;;20.20;92.30;;;;;;5091449;28;20511;-47
2023/06/28 00:11:00;;;;;;;3.13;1.60;;;20.20;92.40;;;;;;5091746;28;20028;-52
2023/06/28 00:13:25;;;;;;;11.73;2.55;;;20.20;92.40;;;;;;5091938;28;20126;-47
2023/06/28 00:15:51;;;;;;;3.67;1.30;;;20.20;92.30;;;;;;5091287;28;20066;-47
2023/06/28 00:18:16;;;;;;;3.95;1.70;;;20.20;92.30;;;;;;5091694;28;20391;-50
2023/06/28 00:20:42;;;;;;;2.83;1.27;;;20.20;92.40;;;;;;5073635;28;20024;-53
2023/06/28 00:23:08;;;;;;;2.10;1.55;;;20.20;92.50;;;;;;5091054;28;20089;-51
2023/06/28 00:25:34;;;;;;;8.23;2.20;;;20.10;93.40;;;;;;5090528;28;20016;-49
2023/06/28 00:28:00;;;;;;;6.40;1.90;;;20.20;93.90;;;;;;5091036;28;20268;-50
2023/06/28 00:30:25;;;;;;;7.72;2.00;;;20.20;94.00;;;;;;5091192;28;20437;-52
2023/06/28 00:32:52;;;;;;;2.15;1.60;;;20.10;94.10;;;;;;5091106;28;20035;-49
2023/06/28 00:35:17;;;;;;;1.85;1.60;;;20.10;94.10;;;;;;5090341;28;20145;-48
2023/06/28 00:37:43;;;;;;;6.72;1.70;;;20.10;94.20;;;;;;5091042;28;20114;-48
2023/06/28 00:40:09;;;;;;;5.55;1.88;;;20.10;94.40;;;;;;5073102;28;20072;-49
2023/06/28 00:42:35;;;;;;;3.17;1.45;;;20.10;94.40;;;;;;5091009;28;20598;-49
2023/06/28 00:45:00;;;;;;;4.45;1.73;;;20.10;94.50;;;;;;5090495;28;20058;-48
2023/06/28 00:47:27;;;;;;;1.67;1.40;;;20.10;94.60;;;;;;5091121;28;20043;-50
2023/06/28 00:49:55;;;;;;;2.17;1.27;;;20.10;94.90;;;;;;5090974;28;20027;-46
2023/06/28 00:52:21;;;;;;;2.20;1.35;;;20.10;94.70;;;;;;5090972;28;20028;-47
2023/06/28 00:54:46;;;;;;;2.67;1.70;;;20.10;94.80;;;;;;5090291;28;20039;-51
2023/06/28 00:57:12;;;;;;;7.63;1.77;;;20.10;94.90;;;;;;5090038;28;20032;-48
2023/06/28 00:59:38;;;;;;;1.25;1.15;;;20.20;95.00;;;;;;5091479;28;20474;-47
2023/06/28 01:02:03;;;;;;;4.22;1.60;;;20.20;95.20;;;;;;5090944;28;20024;-52
2023/06/28 01:04:29;;;;;;;3.47;1.30;;;20.10;95.00;;;;;;5090660;28;20020;-49
2023/06/28 01:06:59;;;;;;;2.25;1.40;;;20.10;94.80;;;;;;5072702;28;20020;-47
2023/06/28 01:09:26;;;;;;;3.33;1.35;;;20.10;95.00;;;;;;5091276;28;20258;-48
2023/06/28 01:11:54;;;;;;;1.98;1.50;;;20.10;95.20;;;;;;5094317;28;20032;-47
2023/06/28 01:14:21;;;;;;;3.50;1.38;;;20.10;95.30;;;;;;5094112;28;20107;-49
2023/06/28 01:16:49;;;;;;;5.00;1.70;;;20.10;95.70;;;;;;5093935;28;20039;-49
2023/06/28 01:19:16;;;;;;;6.20;2.58;;;20.00;94.30;;;;;;5094396;28;20395;-51
2023/06/28 01:21:45;;;;;;;3.38;1.77;;;19.90;94.20;;;;;;5094134;28;20539;-50
2023/06/28 01:24:11;;;;;;;1.95;1.80;;;19.80;94.50;;;;;;5093691;28;20575;-50
2023/06/28 01:26:37;;;;;;;4.18;1.60;;;19.80;94.10;;;;;;5093850;28;20070;-51
2023/06/28 01:29:04;;;;;;;4.50;1.77;;;19.80;94.50;;;;;;5094160;28;20024;-51
2023/06/28 01:31:30;;;;;;;3.22;1.90;;;19.70;94.80;;;;;;5094028;28;20032;-48
2023/06/28 01:33:56;;;;;;;2.75;1.88;;;19.70;94.20;;;;;;5075495;28;20024;-48
2023/06/28 01:36:21;;;;;;;4.55;2.00;;;19.70;94.10;;;;;;5093645;28;20047;-48
2023/06/28 01:38:47;;;;;;;2.63;1.42;;;19.60;94.20;;;;;;5094097;28;20107;-50
2023/06/28 01:41:14;;;;;;;7.40;1.75;;;19.70;94.50;;;;;;5093988;28;20545;-50
2023/06/28 01:43:41;;;;;;;4.20;1.73;;;19.60;94.30;;;;;;5093729;28;20031;-53
2023/06/28 01:46:07;;;;;;;2.47;1.90;;;19.60;94.30;;;;;;5093366;28;20103;-51
2023/06/28 01:48:33;;;;;;;2.80;1.83;;;19.60;94.50;;;;;;5093763;28;20107;-52
2023/06/28 01:50:59;;;;;;;4.05;1.70;;;19.70;94.10;;;;;;5093578;28;20029;-48
2023/06/28 01:53:24;;;;;;;5.50;1.55;;;19.70;94.10;;;;;;5094013;28;20119;-52
2023/06/28 01:55:50;;;;;;;5.18;1.65;;;19.80;94.20;;;;;;5091883;28;20115;-50
2023/06/28 01:58:15;;;;;;;6.55;1.95;;;19.70;95.10;;;;;;5093559;28;20035;-47
2023/06/28 02:00:41;;;;;;;5.13;1.60;;;19.60;95.10;;;;;;5093675;28;20490;-47
2023/06/28 02:03:06;;;;;;;9.43;2.67;;;19.60;94.80;;;;;;5093427;28;20150;-49
2023/06/28 02:05:32;;;;;;;8.60;1.67;;;19.50;94.70;;;;;;5092671;28;20031;-48
2023/06/28 02:07:57;;;;;;;3.42;1.45;;;19.50;94.80;;;;;;5093386;28;20047;-49
2023/06/28 02:10:24;;;;;;;1.67;1.52;;;19.50;94.80;;;;;;5075088;28;20012;-48
2023/06/28 02:12:49;;;;;;;2.65;1.83;;;19.50;95.10;;;;;;5093117;28;20502;-49
2023/06/28 02:15:15;;;;;;;7.15;1.75;;;19.50;95.00;;;;;;5092454;28;20056;-48
2023/06/28 02:17:41;;;;;;;4.88;1.65;;;19.50;94.80;;;;;;5093074;28;20032;-46
2023/06/28 02:20:12;;;;;;;2.47;1.48;;;19.40;95.00;;;;;;5093094;28;20036;-49
2023/06/28 02:22:39;;;;;;;4.55;1.73;;;19.40;95.00;;;;;;5092304;28;20099;-50
2023/06/28 02:25:05;;;;;;;2.58;1.83;;;19.40;95.10;;;;;;5092210;28;20024;-48
2023/06/28 02:27:31;;;;;;;2.00;1.65;;;19.40;95.00;;;;;;5074853;28;20475;-47
2023/06/28 02:29:56;;;;;;;4.63;1.38;;;19.40;95.10;;;;;;5093216;28;20105;-49
2023/06/28 02:32:22;;;;;;;5.05;1.52;;;19.40;95.20;;;;;;5092717;28;20031;-49
2023/06/28 02:34:48;;;;;;;2.47;1.50;;;19.40;95.20;;;;;;5092033;28;20035;-49
2023/06/28 02:37:14;;;;;;;4.63;2.30;;;19.40;95.20;;;;;;5093329;28;20020;-46
2023/06/28 02:39:39;;;;;;;4.47;1.63;;;19.40;95.30;;;;;;5092654;28;20504;-47
2023/06/28 02:42:05;;;;;;;5.15;1.75;;;19.40;95.50;;;;;;5092593;28;20024;-49
2023/06/28 02:44:31;;;;;;;3.05;1.88;;;19.40;95.50;;;;;;5092251;28;20020;-51
2023/06/28 02:46:56;;;;;;;3.42;1.20;;;19.40;95.60;;;;;;5092281;28;20107;-48
2023/06/28 02:49:22;;;;;;;4.25;1.80;;;19.40;95.50;;;;;;5092542;28;20099;-48
2023/06/28 02:51:48;;;;;;;7.72;1.83;;;19.40;95.50;;;;;;5092711;28;20119;-46
2023/06/28 02:54:13;;;;;;;2.70;1.60;;;19.40;95.60;;;;;;5092170;28;20483;-48
2023/06/28 02:56:39;;;;;;;3.00;1.42;;;19.30;95.70;;;;;;5091179;28;20099;-49
2023/06/28 02:59:04;;;;;;;4.82;2.03;;;19.20;95.70;;;;;;5071215;28;20024;-46
2023/06/28 03:01:30;;;;;;;3.97;1.67;;;19.30;95.70;;;;;;5088795;28;20040;-48
2023/06/28 03:03:55;;;;;;;1.90;1.38;;;19.30;95.80;;;;;;5070222;28;20020;-44
2023/06/28 03:06:21;;;;;;;4.63;1.63;;;19.30;95.80;;;;;;5070230;28;20027;-48
2023/06/28 03:08:46;;;;;;;5.55;2.10;;;19.30;95.90;;;;;;5088766;28;20360;-49
2023/06/28 03:11:12;;;;;;;4.47;1.60;;;19.30;96.00;;;;;;5088931;28;20144;-53
2023/06/28 03:13:37;;;;;;;4.90;1.67;;;19.30;96.00;;;;;;5088829;28;20040;-50
2023/06/28 03:16:03;;;;;;;6.93;1.30;;;19.20;96.20;;;;;;5088679;28;20339;-53
2023/06/28 03:18:28;;;;;;;4.40;1.90;;;19.30;96.30;;;;;;5089570;28;20042;-54
2023/06/28 03:20:54;;;;;;;6.22;1.88;;;19.20;96.30;;;;;;5089149;28;20035;-51
2023/06/28 03:23:19;;;;;;;11.05;2.17;;;19.30;96.30;;;;;;5089433;28;20032;-50
2023/06/28 03:25:45;;;;;;;4.97;1.83;;;19.20;96.70;;;;;;5069561;28;20348;-51
2023/06/28 03:28:11;;;;;;;3.95;1.80;;;19.20;96.60;;;;;;5088326;28;20107;-49
2023/06/28 03:30:37;;;;;;;6.20;1.83;;;19.20;96.70;;;;;;5088439;28;20476;-46
2023/06/28 03:33:03;;;;;;;5.68;2.00;;;19.20;96.70;;;;;;5069283;28;20070;-50
2023/06/28 03:35:28;;;;;;;9.65;2.35;;;19.20;96.70;;;;;;5086860;28;20396;-46
2023/06/28 03:37:55;;;;;;;3.05;1.70;;;19.20;96.70;;;;;;5088342;28;20027;-46
2023/06/28 03:40:21;;;;;;;2.13;1.50;;;19.20;97.00;;;;;;5088307;28;20039;-53
2023/06/28 03:42:47;;;;;;;7.95;1.65;;;19.20;96.70;;;;;;5088526;28;20455;-51
2023/06/28 03:45:14;;;;;;;2.70;1.20;;;19.20;96.90;;;;;;5087514;28;20020;-50
2023/06/28 03:47:39;;;;;;;4.38;2.00;;;19.20;97.10;;;;;;5087671;28;20028;-52
2023/06/28 03:50:05;;;;;;;4.10;1.98;;;19.20;97.10;;;;;;5069918;28;20024;-50
2023/06/28 03:52:31;;;;;;;3.47;1.70;;;19.20;97.00;;;;;;5069830;28;20340;-51
2023/06/28 03:54:56;;;;;;;5.97;1.73;;;19.10;97.10;;;;;;5087365;28;20661;-50
2023/06/28 03:57:22;;;;;;;2.45;1.30;;;19.10;97.20;;;;;;5088142;28;20039;-50
2023/06/28 03:59:47;;;;;;;4.15;1.70;;;19.20;97.10;;;;;;5087159;28;20480;-51
2023/06/28 04:02:13;;;;;;;6.82;1.90;;;19.10;97.00;;;;;;5089839;28;20028;-49
2023/06/28 04:04:39;;;;;;;5.75;1.35;;;19.10;96.80;;;;;;5090221;28;20023;-46
2023/06/28 04:07:05;;;;;;;9.25;2.35;;;19.10;96.90;;;;;;5091228;28;20020;-49
2023/06/28 04:09:31;;;;;;;7.90;1.88;;;19.10;96.80;;;;;;5091391;28;20504;-51
2023/06/28 04:11:56;;;;;;;1.50;1.30;;;19.10;96.90;;;;;;5091539;28;20506;-51
2023/06/28 04:14:23;;;;;;;2.92;1.50;;;19.10;96.80;;;;;;5091031;28;20031;-48
2023/06/28 04:16:49;;;;;;;3.20;1.40;;;19.10;96.80;;;;;;5073019;28;20028;-47
2023/06/28 04:19:14;;;;;;;6.25;1.65;;;19.10;96.80;;;;;;5091331;28;20402;-48
2023/06/28 04:21:40;;;;;;;3.53;1.50;;;19.10;96.90;;;;;;5091267;28;20032;-52
2023/06/28 04:24:06;;;;;;;6.03;1.30;;;19.10;97.00;;;;;;5090839;28;20024;-48
2023/06/28 04:26:31;;;;;;;4.25;1.90;;;19.10;96.90;;;;;;5091273;28;20017;-45
2023/06/28 04:28:57;;;;;;;4.80;1.92;;;19.10;96.90;;;;;;5091287;28;20020;-48
2023/06/28 04:31:23;;;;;;;4.45;1.67;;;19.10;96.90;;;;;;5091169;28;20032;-51
2023/06/28 04:33:49;;;;;;;4.38;1.83;;;19.10;96.90;;;;;;5090805;28;20035;-49
2023/06/28 04:36:21;;;;;;;5.80;1.85;;;19.10;97.10;;;;;;5090859;28;20476;-51
2023/06/28 04:38:52;;;;;;;5.70;1.65;;;19.10;97.10;;;;;;5091276;28;20024;-49
2023/06/28 04:41:27;;;;;;;5.38;1.73;;;19.10;97.30;;;;;;5091015;28;20020;-47
2023/06/28 04:43:55;;;;;;;;;;;19.10;97.50;;;;;;5072815;28;20590;-47
2023/06/28 04:46:22;;;;;;;5.03;1.92;;;19.10;97.40;;;;;;5094821;28;19911;-48
2023/06/28 04:48:48;;;;;;;4.05;1.90;;;19.10;97.40;;;;;;5094972;28;20034;-49
2023/06/28 04:51:14;;;;;;;6.78;1.85;;;19.10;97.20;;;;;;5094685;28;20495;-48
2023/06/28 04:53:39;;;;;;;5.15;1.92;;;19.10;97.40;;;;;;5094767;28;20034;-52
2023/06/28 04:56:05;;;;;;;3.70;1.60;;;19.10;97.30;;;;;;5093993;28;20025;-51
2023/06/28 04:58:31;;;;;;;6.75;1.70;;;19.10;97.30;;;;;;5094770;28;20545;-48
2023/06/28 05:00:56;;;;;;;6.13;1.98;;;19.00;97.50;;;;;;5093873;28;20128;-50
2023/06/28 05:03:27;;;;;;;4.82;1.98;;;19.00;97.60;;;;;;5094643;28;20024;-53
2023/06/28 05:05:54;;;;;;;7.53;2.05;;;19.00;97.70;;;;;;5093801;28;20372;-48
2023/06/28 05:08:20;;;;;;;3.63;1.70;;;18.80;97.80;;;;;;5094612;28;20174;-54
2023/06/28 05:10:46;;;;;;;4.07;1.80;;;18.90;98.30;;;;;;5094543;28;20495;-49
2023/06/28 05:13:11;;;;;;;6.03;2.13;;;19.00;98.20;;;;;;5121239;22;20075;-56
2023/06/28 05:15:36;;;;;;;7.22;1.75;;;19.00;98.10;;;;;;5095680;28;20020;-55
2023/06/28 05:18:03;;;;;;;6.47;2.53;;;19.00;98.00;;;;;;5096419;28;20130;-51
2023/06/28 05:20:29;;;;;;;3.42;1.30;;;19.00;98.40;;;;;;5114836;28;20502;-53
2023/06/28 05:23:18;;;;;;;1.80;1.67;;;19.00;98.60;;;;;;5115036;28;20024;-54
2023/06/28 05:25:44;;;;;;;3.08;1.88;;;19.00;98.30;;;;;;5113905;28;20093;-54
2023/06/28 05:28:13;;;;;;;2.25;1.42;;;19.10;99.60;;;;;;5114586;28;20502;-53
2023/06/28 05:30:40;;;;;;;3.20;2.00;;;19.10;99.90;;;;;;5096505;28;20031;-53
2023/06/28 05:33:06;;;;;;;5.97;2.03;;;19.20;99.90;;;;;;5114594;28;20474;-56
2023/06/28 05:35:33;;;;;;;2.45;1.52;;;19.20;99.90;;;;;;5114140;28;20043;-58
2023/06/28 05:38:04;;;;;;;4.03;1.65;;;19.20;99.20;;;;;;5096599;28;20077;-54
2023/06/28 05:40:30;;;;;;;5.47;1.58;;;19.20;99.10;;;;;;5114761;28;20076;-56
2023/06/28 05:42:58;;;;;;;2.55;1.60;;;19.20;99.00;;;;;;5114306;28;20023;-56
2023/06/28 05:45:25;;;;;;;4.18;1.80;;;19.20;99.00;;;;;;5113692;28;20023;-57
2023/06/28 05:47:51;;;;;;;9.45;2.30;;;19.20;99.10;;;;;;5114493;28;20030;-53
2023/06/28 05:50:17;;;;;;;5.22;1.75;;;19.10;99.30;;;;;;5114697;28;20019;-55
2023/06/28 05:52:44;;;;;;;6.13;2.13;;;19.20;99.40;;;;;;5114326;28;20494;-52
2023/06/28 05:55:10;;;;;;;6.32;1.95;;;19.10;99.20;;;;;;5113404;28;20361;-56
2023/06/28 05:57:35;;;;;;;2.65;1.55;;;19.10;99.40;;;;;;5113310;28;20052;-53
2023/06/28 06:00:05;;;;;;;6.10;2.00;;;19.10;99.50;;;;;;5113049;28;20031;-57
2023/06/28 06:02:30;;;;;;;4.88;2.25;;;19.10;99.70;;;;;;5113771;28;20023;-56
2023/06/28 06:04:58;;;;;;;8.25;2.47;;;19.10;99.40;;;;;;5094764;28;20030;-57
2023/06/28 06:07:23;;;;;;;3.88;1.75;;;19.20;99.60;;;;;;5107392;28;20082;-55
2023/06/28 06:09:49;;;;;;;5.10;2.17;;;19.20;99.60;;;;;;5113697;28;20059;-55
2023/06/28 06:12:14;;;;;;;3.47;2.20;;;19.30;99.60;;;;;;5113197;28;20032;-53
2023/06/28 06:14:40;;;;;;;4.18;1.92;;;19.30;99.60;;;;;;5112398;28;20027;-56
2023/06/28 06:17:05;;;;;;;4.22;2.50;;;19.40;99.50;;;;;;5109614;28;20046;-54
2023/06/28 06:19:31;;;;;;;8.98;2.22;;;19.40;99.60;;;;;;5111203;28;20027;-54
2023/06/28 06:21:56;;;;;;;17.00;3.40;;;19.30;99.70;;;;;;5105710;28;20400;-52
2023/06/28 06:24:22;;;;;;;7.80;2.20;;;19.30;99.30;;;;;;5092677;28;20404;-52
2023/06/28 06:26:47;;;;;;;3.83;1.85;;;19.20;99.60;;;;;;5105822;28;20023;-52
2023/06/28 06:29:13;;;;;;;3.92;1.70;;;19.20;99.90;;;;;;5094962;28;20043;-54
2023/06/28 06:31:38;;;;;;;13.85;2.47;;;19.30;99.90;;;;;;5112107;28;20059;-54
2023/06/28 06:34:04;;;;;;;3.78;1.90;;;19.30;99.90;;;;;;5112112;28;20067;-54
2023/06/28 06:36:30;;;;;;;7.45;1.95;;;19.30;99.90;;;;;;5094459;28;20387;-55
2023/06/28 06:38:57;;;;;;;4.97;1.90;;;19.30;99.90;;;;;;5113188;28;20031;-55
2023/06/28 06:41:22;;;;;;;3.33;1.45;;;19.30;99.90;;;;;;5113057;28;20024;-54
2023/06/28 06:43:49;;;;;;;2.92;1.92;;;19.40;99.90;;;;;;5111963;28;20103;-56
2023/06/28 06:46:20;;;;;;;4.95;1.92;;;19.30;99.90;;;;;;5112383;28;20019;-54
2023/06/28 06:48:46;;;;;;;5.97;1.80;;;19.30;99.90;;;;;;5112410;28;20099;-53
2023/06/28 06:51:11;;;;;;;7.13;3.55;;;19.30;99.90;;;;;;5111945;28;20055;-55
2023/06/28 06:53:37;;;;;;;11.23;2.20;;;19.40;99.90;;;;;;5112699;28;20447;-52
2023/06/28 06:56:03;;;;;;;4.35;1.92;;;19.40;99.90;;;;;;5111687;28;20035;-54
2023/06/28 06:58:28;;;;;;;7.45;1.92;;;19.40;99.90;;;;;;5112154;28;20445;-53
2023/06/28 07:00:54;;;;;;;6.38;2.35;;;19.30;99.70;;;;;;5094019;28;20023;-57
2023/06/28 07:03:19;;;;;;;4.57;1.70;;;19.20;99.90;;;;;;5112452;28;20023;-55
2023/06/28 07:05:45;;;;;;;7.30;2.17;;;19.20;99.80;;;;;;5112103;28;20052;-53
2023/06/28 07:08:10;;;;;;;4.18;2.05;;;19.10;99.90;;;;;;5112029;28;20055;-54
2023/06/28 07:10:36;;;;;;;3.00;1.80;;;19.10;99.90;;;;;;5112300;28;20555;-52
2023/06/28 07:13:02;;;;;;;4.18;2.15;;;19.10;99.90;;;;;;5112280;28;20031;-54
2023/06/28 07:15:27;;;;;;;7.88;2.13;;;19.10;99.90;;;;;;5111603;28;20028;-56
2023/06/28 07:17:53;;;;;;;3.42;1.70;;;19.10;99.80;;;;;;5112583;28;20027;-53
2023/06/28 07:20:19;;;;;;;4.47;2.20;;;19.20;99.90;;;;;;5094169;28;20024;-60
2023/06/28 07:22:45;;;;;;;1.88;1.52;;;19.30;99.70;;;;;;5112423;28;20031;-57
2023/06/28 07:25:11;;;;;;;3.25;1.73;;;19.20;99.80;;;;;;5111294;28;20030;-57
2023/06/28 07:27:36;;;;;;;2.92;1.48;;;19.30;99.60;;;;;;5112297;28;20483;-56
2023/06/28 07:30:02;;;;;;;9.85;2.00;;;19.40;99.70;;;;;;5112646;28;20475;-56
2023/06/28 07:32:28;;;;;;;5.78;1.90;;;19.50;99.50;;;;;;5111853;28;20400;-56
2023/06/28 07:34:54;;;;;;;6.53;1.85;;;19.50;99.70;;;;;;5093212;28;20028;-56
2023/06/28 07:37:21;;;;;;;6.60;2.20;;;19.60;99.80;;;;;;5112116;28;20046;-52
2023/06/28 07:39:46;;;;;;;4.80;1.75;;;19.50;99.20;;;;;;5112012;28;20042;-54
2023/06/28 07:42:12;;;;;;;8.60;3.35;;;19.50;99.20;;;;;;5111936;28;20028;-58
2023/06/28 07:44:38;;;;;;;3.92;1.98;;;19.40;99.40;;;;;;5111554;28;20455;-57
2023/06/28 07:47:04;;;;;;;7.82;2.03;;;19.40;99.40;;;;;;5111421;28;20058;-54
2023/06/28 07:49:30;;;;;;;3.40;1.90;;;19.40;99.20;;;;;;5112022;28;20035;-51
2023/06/28 07:51:55;;;;;;;7.72;2.08;;;19.40;99.50;;;;;;5093280;28;20023;-54
2023/06/28 07:54:23;;;;;;;7.32;2.25;;;19.50;99.20;;;;;;5111373;28;20023;-54
2023/06/28 07:56:49;;;;;;;5.05;1.88;;;19.40;98.80;;;;;;5093011;28;20380;-55
2023/06/28 07:59:14;;;;;;;4.00;1.88;;;19.40;98.80;;;;;;5111471;28;20042;-59
2023/06/28 08:01:40;;;;;;;9.45;2.10;;;19.60;99.00;;;;;;5111908;28;20360;-51
2023/06/28 08:04:05;;;;;;;5.22;1.80;;;19.60;98.90;;;;;;5111788;28;20090;-55
2023/06/28 08:06:31;;;;;;;6.75;2.00;;;19.60;98.50;;;;;;5111533;28;20030;-54
2023/06/28 08:08:56;;;;;;;3.30;1.90;;;19.60;98.20;;;;;;5111818;28;20034;-52
2023/06/28 08:11:22;;;;;;;8.32;1.77;;;19.60;98.60;;;;;;5111755;28;20020;-53
2023/06/28 08:13:50;;;;;;;2.55;1.80;;;19.60;98.70;;;;;;5092555;28;20046;-50
2023/06/28 08:16:16;;;;;;;7.15;2.97;;;19.70;98.50;;;;;;5111130;28;20027;-52
2023/06/28 08:18:42;;;;;;;7.47;2.15;;;19.80;98.20;;;;;;5111414;28;20038;-50
2023/06/28 08:21:07;;;;;;;6.38;2.05;;;19.90;98.30;;;;;;5115156;28;20079;-53
2023/06/28 08:23:33;;;;;;;5.63;2.00;;;19.90;98.20;;;;;;5115930;28;20475;-56
2023/06/28 08:25:58;;;;;;;5.18;2.20;;;19.90;98.20;;;;;;5114970;28;20072;-54
2023/06/28 08:28:24;;;;;;;4.38;1.90;;;20.00;98.40;;;;;;5115518;28;20016;-52
2023/06/28 08:30:49;;;;;;;7.00;2.08;;;20.20;98.10;;;;;;5115807;28;20036;-55
2023/06/28 08:33:15;;;;;;;6.50;2.22;;;20.30;97.90;;;;;;5115488;28;20031;-56
2023/06/28 08:35:40;;;;;;;4.18;1.70;;;20.30;97.90;;;;;;5096600;28;20028;-56
2023/06/28 08:38:06;;;;;;;3.28;1.77;;;20.20;98.00;;;;;;5115713;28;20020;-51
2023/06/28 08:40:32;;;;;;;3.15;1.55;;;20.40;97.70;;;;;;5115384;28;20098;-55
2023/06/28 08:43:03;;;;;;;3.72;1.90;;;20.60;97.60;;;;;;5115274;28;20024;-54
2023/06/28 08:45:32;;;;;;;3.85;1.90;;;20.70;97.10;;;;;;5114588;28;20027;-51
2023/06/28 08:47:59;;;;;;;8.40;1.67;;;20.70;97.10;;;;;;5115332;28;20383;-53
2023/06/28 08:50:24;;;;;;;5.70;1.90;;;20.80;97.40;;;;;;5115504;28;20641;-53
2023/06/28 08:52:51;;;;;;;7.25;1.92;;;20.70;97.10;;;;;;5115267;28;20031;-53
2023/06/28 08:55:19;;;;;;;5.97;1.95;;;20.70;97.20;;;;;;5114228;28;20779;-54
2023/06/28 08:57:46;;;;;;;4.65;2.03;;;20.70;97.40;;;;;;5114631;28;20027;-53
2023/06/28 09:00:12;;;;;;;4.93;2.78;;;20.70;97.20;;;;;;5114881;28;20525;-56
2023/06/28 09:02:43;;;;;;;6.82;2.15;;;20.70;97.30;;;;;;5096740;28;20031;-53
2023/06/28 09:05:10;;;;;;;3.60;1.70;;;20.70;97.20;;;;;;5114413;28;20015;-51
2023/06/28 09:07:38;;;;;;;7.47;1.90;;;20.80;97.00;;;;;;5096920;28;20023;-56
2023/06/28 09:10:05;;;;;;;3.75;1.83;;;21.00;96.80;;;;;;5114430;28;20499;-57
2023/06/28 09:12:31;;;;;;;4.00;1.73;;;21.10;96.80;;;;;;5114724;28;20032;-51
2023/06/28 09:14:57;;;;;;;6.60;1.67;;;21.30;96.80;;;;;;5114488;28;20136;-53
2023/06/28 09:17:23;;;;;;;4.93;1.98;;;21.40;96.90;;;;;;5115119;28;20028;-57
2023/06/28 09:19:48;;;;;;;5.45;1.77;;;21.50;96.40;;;;;;5115094;28;20570;-55
2023/06/28 09:22:15;;;;;;;4.90;2.15;;;21.50;95.90;;;;;;5115095;28;20094;-55
2023/06/28 09:24:41;;;;;;;9.90;2.15;;;21.60;96.10;;;;;;5115155;28;20030;-53
2023/06/28 09:27:07;;;;;;;12.25;2.28;;;21.80;95.50;;;;;;5097022;28;20445;-54
2023/06/28 09:29:33;;;;;;;6.25;1.90;;;21.80;94.80;;;;;;5114963;28;20026;-56
2023/06/28 09:32:00;;;;;;;8.50;2.40;;;21.70;94.70;;;;;;5114473;28;20433;-57
2023/06/28 09:34:26;;;;;;;6.80;2.33;;;21.70;94.70;;;;;;5114235;28;20020;-54
2023/06/28 09:36:53;;;;;;;15.02;2.40;;;21.60;94.70;;;;;;5095845;28;20023;-58
2023/06/28 09:39:20;;;;;;;9.65;2.28;;;21.50;94.60;;;;;;5113907;28;20027;-58
2023/06/28 09:41:45;;;;;;;4.28;1.75;;;21.50;94.80;;;;;;5114317;28;20432;-56
2023/06/28 09:44:12;;;;;;;6.32;2.30;;;21.50;94.90;;;;;;5095433;28;20024;-59
2023/06/28 09:46:45;;;;;;;5.30;2.17;;;21.70;94.30;;;;;;5113990;28;20373;-52
2023/06/28 09:49:23;;;;;;;9.50;2.05;;;21.80;94.20;;;;;;5112380;28;20026;-57
2023/06/28 09:51:57;;;;;;;10.90;2.28;;;21.90;94.20;;;;;;5102804;28;20036;-58
2023/06/28 09:54:30;;;;;;;12.40;2.22;;;22.20;93.80;;;;;;5093444;28;20036;-57
2023/06/28 09:56:55;;;;;;;11.35;2.28;;;22.30;93.20;;;;;;5113070;28;20020;-61
2023/06/28 09:59:23;;;;;;;6.32;2.15;;;22.40;92.50;;;;;;5114190;28;20378;-58
2023/06/28 10:01:51;;;;;;;8.63;2.13;;;22.60;92.20;;;;;;5102639;28;20028;-58
2023/06/28 10:04:19;;;;;;;4.90;2.03;;;22.80;91.90;;;;;;5106370;28;20056;-57
2023/06/28 10:06:45;;;;;;;6.78;2.47;;;23.00;91.40;;;;;;5114066;28;20099;-58
2023/06/28 10:09:16;;;;;;;7.63;2.28;;;23.30;91.90;;;;;;5093543;28;20016;-58
2023/06/28 10:11:44;;;;;;;5.03;1.95;;;23.50;91.10;;;;;;5093287;28;20027;-59
2023/06/28 10:14:12;;;;;;;4.65;2.17;;;23.60;90.70;;;;;;5074979;28;20109;-49
2023/06/28 10:16:41;;;;;;;2.85;1.80;;;23.70;90.50;;;;;;5092977;28;20020;-52
2023/06/28 10:19:09;;;;;;;3.53;1.77;;;23.60;90.30;;;;;;5093136;28;20024;-54
2023/06/28 10:21:35;;;;;;;7.60;2.00;;;23.60;90.60;;;;;;5092946;28;20024;-51
2023/06/28 10:24:03;;;;;;;8.50;1.70;;;23.80;90.20;;;;;;5092702;28;20031;-56
2023/06/28 10:26:30;;;;;;;5.03;1.80;;;23.80;91.00;;;;;;5092659;28;20028;-53
2023/06/28 10:28:57;;;;;;;9.02;2.28;;;24.00;90.90;;;;;;5095222;28;20080;-50
2023/06/28 10:31:23;;;;;;;9.07;2.60;;;23.90;89.90;;;;;;5108955;28;20030;-52
2023/06/28 10:33:50;;;;;;;6.82;2.58;;;24.00;90.40;;;;;;5092693;28;20107;-54
2023/06/28 10:36:16;;;;;;;6.93;2.22;;;23.90;90.00;;;;;;5103103;28;20435;-51
2023/06/28 10:38:43;;;;;;;8.30;2.13;;;24.00;89.40;;;;;;5113662;28;20063;-52
2023/06/28 10:41:16;;;;;;;6.75;2.20;;;24.10;90.10;;;;;;5108261;28;20039;-50
2023/06/28 10:43:42;;;;;;;3.00;1.92;;;24.10;89.50;;;;;;5094191;28;20026;-52
2023/06/28 10:46:25;;;;;;;8.05;2.08;;;24.20;89.40;;;;;;5111825;28;20024;-49
2023/06/28 10:48:54;;;;;;;7.47;1.92;;;24.40;89.80;;;;;;5093763;28;20027;-56
2023/06/28 10:51:27;;;;;;;3.65;1.92;;;24.70;90.00;;;;;;5092717;28;20107;-53
2023/06/28 10:54:04;;;;;;;6.70;2.20;;;24.90;88.30;;;;;;5092681;28;20020;-50
2023/06/28 10:56:46;;;;;;;9.73;2.13;;;24.80;86.60;;;;;;5092103;28;20547;-50
2023/06/28 10:59:12;;;;;;;8.02;2.38;;;24.60;87.10;;;;;;5096578;28;20028;-53
2023/06/28 11:01:59;;;;;;;4.00;2.08;;;24.50;87.20;;;;;;5112103;28;20564;-52
2023/06/28 11:04:25;;;;;;;6.43;1.70;;;24.20;89.40;;;;;;5109905;28;20091;-51
2023/06/28 11:07:14;;;;;;;5.55;2.00;;;24.30;89.90;;;;;;5099762;28;20022;-51
2023/06/28 11:09:40;;;;;;;4.32;2.15;;;24.40;89.20;;;;;;5094619;28;20016;-52
2023/06/28 11:12:13;;;;;;;12.52;3.53;;;24.60;88.80;;;;;;5121284;22;20088;-46
2023/06/28 11:14:38;;;;;;;16.42;9.20;;;24.60;88.10;;;;;;5051408;28;20033;-44
2023/06/28 11:17:14;;;;;;;4.07;1.90;;;24.80;87.40;;;;;;5051464;28;20025;-49
2023/06/28 11:19:42;;;;;;;6.18;2.42;;;24.60;88.50;;;;;;5033720;28;20017;-46
2023/06/28 11:22:07;;;;;;;11.55;2.35;;;24.50;88.50;;;;;;5048079;28;20079;-48
2023/06/28 11:24:33;;;;;;;9.30;2.35;;;24.60;88.00;;;;;;5050785;28;20021;-50
2023/06/28 11:26:59;;;;;;;6.60;1.77;;;24.50;87.80;;;;;;5048366;28;20089;-50
2023/06/28 11:29:25;;;;;;;9.13;2.10;;;24.40;89.20;;;;;;5051751;28;20100;-48
2023/06/28 11:31:57;;;;;;;9.45;3.65;;;24.40;90.10;;;;;;5051617;28;20028;-44
2023/06/28 11:34:23;;;;;;;9.15;2.53;;;24.40;88.40;;;;;;5050644;28;20043;-46
2023/06/28 11:36:50;;;;;;;9.93;1.83;;;24.40;88.50;;;;;;5048962;28;20040;-50
2023/06/28 11:39:20;;;;;;;6.65;2.00;;;24.40;89.60;;;;;;5049499;28;20017;-49
2023/06/28 11:41:46;;;;;;;6.97;2.17;;;24.50;89.20;;;;;;5045290;28;20036;-49
2023/06/28 11:44:13;;;;;;;8.45;1.70;;;24.60;89.30;;;;;;5049629;28;20013;-49
2023/06/28 11:46:39;;;;;;;3.60;2.28;;;24.70;88.90;;;;;;5048016;28;20388;-46
2023/06/28 11:49:06;;;;;;;7.15;1.90;;;24.70;87.70;;;;;;5051217;28;20380;-47
2023/06/28 11:51:32;;;;;;;2.30;1.77;;;24.60;87.70;;;;;;5050799;28;20032;-48
2023/06/28 11:53:58;;;;;;;3.42;2.05;;;24.50;88.50;;;;;;5050385;28;20598;-50
2023/06/28 11:56:42;;;;;;;3.65;1.60;;;24.60;87.90;;;;;;5050502;28;20064;-53
2023/06/28 11:59:14;;;;;;;3.80;1.52;;;24.40;88.00;;;;;;5051234;28;20072;-47
2023/06/28 12:01:40;;;;;;;5.07;1.83;;;24.40;88.30;;;;;;5051226;28;20473;-49
2023/06/28 12:04:24;;;;;;;7.00;1.90;;;24.40;87.90;;;;;;5050644;28;20218;-48
2023/06/28 12:06:49;;;;;;;5.28;1.85;;;24.30;88.40;;;;;;5050778;28;20508;-44
2023/06/28 12:09:28;;;;;;;6.20;1.98;;;24.30;88.80;;;;;;5051177;28;20052;-48
2023/06/28 12:11:59;;;;;;;5.82;1.65;;;24.20;89.00;;;;;;5042372;28;20341;-48
2023/06/28 12:14:30;;;;;;;5.47;1.73;;;24.20;89.00;;;;;;5050755;28;20515;-50
2023/06/28 12:16:57;;;;;;;4.32;2.03;;;24.10;89.80;;;;;;5050772;28;20021;-49
2023/06/28 12:19:29;;;;;;;9.05;2.15;;;24.00;89.50;;;;;;5051136;28;20029;-49
2023/06/28 12:21:56;;;;;;;10.18;2.58;;;24.00;89.40;;;;;;5050934;28;20066;-52
2023/06/28 12:24:24;;;;;;;3.60;2.30;;;24.00;89.60;;;;;;5050663;28;20442;-52
2023/06/28 12:27:00;;;;;;;8.75;2.33;;;24.10;89.20;;;;;;5050319;28;20025;-47
2023/06/28 12:29:29;;;;;;;3.45;1.50;;;24.20;89.50;;;;;;5040244;28;20075;-50
2023/06/28 12:31:56;;;;;;;4.70;3.00;;;24.30;89.40;;;;;;5031162;28;20022;-49
2023/06/28 12:34:26;;;;;;;2.65;2.13;;;24.40;89.10;;;;;;5030756;28;20045;-49
2023/06/28 12:36:54;;;;;;;8.23;2.10;;;24.40;88.80;;;;;;5034674;28;20029;-43
2023/06/28 12:39:27;;;;;;;7.00;1.92;;;24.60;88.20;;;;;;5051189;28;20102;-50
2023/06/28 12:42:06;;;;;;;6.90;2.20;;;24.60;87.50;;;;;;5030771;28;20395;-47
2023/06/28 12:44:50;;;;;;;8.02;2.40;;;24.70;88.10;;;;;;5049076;28;20028;-48